Share

Port Heiden, AK

Port Heiden (PAPH) Elev 95 ft | 56.96 °N, 158.63 °W | Change Station

Current weather conditions updated 13 minutes ago

Overcast
Overcast
34 °F
Feels Like 31 °F
N
4
Wind Variable Wind from East
Sunrise 7:10 AM
Sunset 9:57 PM
Moon Waning Gibbous

Today is forecast to be Warmer than yesterday.

Pressure 29.77 in
Visibility 10.0 miles
Clouds Few 100 ft
Overcast 5500 ft
Windchill 31 °F
Dew Point 28 °F
Humidity 81%
Rainfall 0.00 in
Snow Depth Not available.
UV 0 out of 16
Pollen Not available.
Air Quality Not available.
Flu Activity Sporadic
METAR PAPH 211616Z AUTO 08003KT 10SM FEW001 OVC055 01/M02 A2977 RMK AO1

More Conditions Fewer Conditions

Pressure 29.77 in
Visibility 10.0 miles
Clouds Few 100 ft
Overcast 5500 ft
Windchill 31 °F
Dew Point 28 °F
Humidity 81%
Rainfall 0.00 in
Snow Depth Not available.
UV 0 out of 16
Pollen Not available.
Air Quality Not available.
Flu Activity Sporadic
METAR PAPH 211616Z AUTO 08003KT 10SM FEW001 OVC055 01/M02 A2977 RMK AO1

More Conditions Fewer Conditions

10-Day Weather Forecast

Almanac

Astronomy

Apr. 21, 2014 Rise Set
Actual Time 7:10 AM AKDT 9:57 PM AKDT
Civil Twilight 6:27 AM AKDT 10:40 PM AKDT
Nautical Twilight 5:30 AM AKDT 11:38 PM AKDT
Astronomical Twilight 4:14 AM AKDT 12:56 AM AKDT
Moon 3:51 AM AKDT 12:36 PM AKDT
Length of Visible Light 16h 13m
Length of Day
14h 46m
Tomorrow will be 4m 39s longer.
Waning Gibbous, 57% of the Moon is Illuminated
Today
Waning Gibbous
Apr 22
Last Quarter
Apr 29
New
May 6
First Quarter
May 14
Full

Today's Extremes

State Highs State Lows

Community

  • Glass on White Lake
    Glass on White Lake
  • Bright Eyes
    Bright Eyes
  • Snowy Robin
    Snowy Robin
  • Spring Crocus
    Spring Crocus
  • Sun Pillar and Geese
    Sun Pillar and Geese

WunderPhotos

Upload Photos

1,703,680 photos uploaded!

WunderBlogs® & News

Nearby

Snow Depth

Station Depth Elevation
Port Graham 6 in 300 ft
Mcneil Canyon 7 in 1320 ft
MF Bradley River 20 in 2300 ft
Nuka Glacier 31 in 1250 ft
Cooper Lake 20 in 1200 ft

Coastal Water Temperatures

Place Temperature
No Stations Reporting

Earthquake Activity

City Distance Mag. Time & Date
No recent earthquake activity has been reported nearby.
Minimum magnitude displayed is 2.5.

Nearby Weather Stations

There are no personal weather stations in this area.

What do you think?

We're not finished. Please let us know what you like, what you don't like, and what you are still missing.